Time;durP1;ratioP1;P1;durP2;ratioP2;P2;SDS_P1;SDS_P2;PMS_P1;PMS_P2;Temp;Humidity;BMP_temperature;BMP_pressure;BME280_temperature;BME280_humidity;BME280_pressure;Samples;Min_cycle;Max_cycle;Signal;HPM_P1;HPM_P2
2020/12/25 00:01:08;;;;;;;;;;;;;;;22.58;26.77;97452.78;5103915;28;666;-73
2020/12/25 00:03:33;;;;;;;;;;;;;;;22.75;26.49;97455.41;5103810;28;995;-73
2020/12/25 00:05:59;;;;;;;;;;;;;;;22.59;26.92;97460.06;5103703;28;903;-73
2020/12/25 00:08:24;;;;;;;;;;;;;;;22.20;27.08;97472.88;5104050;28;1050;-74
2020/12/25 00:10:53;;;;;;;;;;;;;;;21.53;28.05;97470.41;5103993;28;709;-73
2020/12/25 00:13:19;;;;;;;;;;;;;;;21.23;28.91;97478.25;5086241;28;676;-74
2020/12/25 00:15:45;;;;;;;;;;;;;;;21.58;28.57;97472.66;5103604;28;571;-73
2020/12/25 00:18:11;;;;;;;;;;;;;;;22.18;27.35;97457.63;5103481;28;1991;-73
2020/12/25 00:20:36;;;;;;;;;;;;;;;21.78;27.23;97357.06;5103550;28;848;-73
2020/12/25 00:23:01;;;;;;;;;;;;;;;22.43;27.08;97456.63;5103827;28;846;-73
2020/12/25 00:25:27;;;;;;;;;;;;;;;22.33;27.01;97465.13;5103705;28;669;-73
2020/12/25 00:27:52;;;;;;;;;;;;;;;21.67;27.90;97463.47;5103411;28;618;-73
2020/12/25 00:30:18;;;;;;;;;;;;;;;21.42;28.37;97458.69;5103786;28;614;-74
2020/12/25 00:32:43;;;;;;;;;;;;;;;21.32;28.67;97464.25;5102980;28;949;-74
2020/12/25 00:35:08;;;;;;;;;;;;;;;21.24;29.04;97459.25;5103032;28;948;-73
2020/12/25 00:37:34;;;;;;;;;;;;;;;21.69;28.55;97458.94;5103411;28;860;-74
2020/12/25 00:39:59;;;;;;;;;;;;;;;22.02;28.03;97464.22;5103489;28;1972;-73
2020/12/25 00:42:25;;;;;;;;;;;;;;;22.47;27.09;97463.75;5103052;28;981;-74
2020/12/25 00:44:50;;;;;;;;;;;;;;;22.70;26.71;97468.16;5103257;28;626;-73
2020/12/25 00:47:16;;;;;;;;;;;;;;;22.72;26.44;97467.66;5103089;28;846;-73
2020/12/25 00:49:41;;;;;;;;;;;;;;;21.84;27.63;97454.34;5085655;28;1118;-73
2020/12/25 00:52:07;;;;;;;;;;;;;;;21.42;28.40;97453.03;5085367;28;1730;-73
2020/12/25 00:54:33;;;;;;;;;;;;;;;21.20;28.83;97448.06;5085476;28;1383;-74
2020/12/25 00:57:05;;;;;;;;;;;;;;;21.64;28.19;97456.69;5085445;28;1280;-73
2020/12/25 00:59:44;;;;;;;;;;;;;;;21.53;28.35;97459.09;5084897;28;1967;-73
2020/12/25 01:02:10;;;;;;;;;;;;;;;21.67;28.62;97457.81;5102501;28;1016;-73
2020/12/25 01:04:36;;;;;;;;;;;;;;;22.00;27.97;97461.06;5101315;28;872;-74
2020/12/25 01:07:05;;;;;;;;;;;;;;;22.36;27.36;97464.16;5103035;28;554;-74
2020/12/25 01:09:30;;;;;;;;;;;;;;;22.66;26.81;97461.03;5103126;28;674;-73
2020/12/25 01:11:57;;;;;;;;;;;;;;;22.50;27.00;97467.72;5102695;28;673;-73
2020/12/25 01:14:23;;;;;;;;;;;;;;;21.69;28.00;97470.25;5102247;28;846;-73
2020/12/25 01:16:48;;;;;;;;;;;;;;;21.60;28.16;97470.16;5102448;28;955;-73
2020/12/25 01:19:14;;;;;;;;;;;;;;;21.50;28.67;97466.47;5102675;28;1971;-74
2020/12/25 01:21:39;;;;;;;;;;;;;;;22.16;27.50;97463.72;5102403;28;686;-73
2020/12/25 01:24:05;;;;;;;;;;;;;;;22.49;26.84;97457.66;5102332;28;718;-74
2020/12/25 01:26:30;;;;;;;;;;;;;;;22.65;26.56;97456.63;5102373;28;670;-74
2020/12/25 01:29:00;;;;;;;;;;;;;;;22.91;26.55;97452.34;5101886;28;1011;-73
2020/12/25 01:31:25;;;;;;;;;;;;;;;22.29;27.06;97453.13;5101869;28;935;-73
2020/12/25 01:33:51;;;;;;;;;;;;;;;21.44;28.04;97439.97;5102307;28;809;-74
2020/12/25 01:36:16;;;;;;;;;;;;;;;21.29;28.58;97433.19;5102205;28;598;-73
2020/12/25 01:38:42;;;;;;;;;;;;;;;21.74;28.80;97446.22;5101960;28;1906;-73
2020/12/25 01:41:07;;;;;;;;;;;;;;;22.22;27.69;97447.69;5101625;28;938;-73
2020/12/25 01:43:33;;;;;;;;;;;;;;;22.58;27.02;97440.66;5101949;28;1014;-73
2020/12/25 01:45:58;;;;;;;;;;;;;;;22.83;26.68;97439.66;5101923;28;829;-74
2020/12/25 01:48:23;;;;;;;;;;;;;;;22.02;27.43;97433.06;5101884;28;626;-74
2020/12/25 01:50:51;;;;;;;;;;;;;;;21.68;27.82;97437.53;5084714;28;606;-73
2020/12/25 01:53:17;;;;;;;;;;;;;;;21.54;28.19;97438.03;5101742;28;724;-74
2020/12/25 01:55:42;;;;;;;;;;;;;;;21.87;28.44;97444.13;5084087;28;1011;-73
2020/12/25 01:58:07;;;;;;;;;;;;;;;22.43;27.14;97433.97;5101468;28;1906;-73
2020/12/25 02:00:33;;;;;;;;;;;;;;;22.59;26.90;97443.03;5084026;28;949;-72
2020/12/25 02:02:58;;;;;;;;;;;;;;;22.68;26.81;97432.97;5084295;28;922;-74
2020/12/25 02:05:24;;;;;;;;;;;;;;;22.09;27.42;97444.13;5101649;28;646;-74
2020/12/25 02:07:49;;;;;;;;;;;;;;;21.42;28.30;97441.69;5101995;28;729;-73
2020/12/25 02:10:17;;;;;;;;;;;;;;;21.59;28.04;97435.41;5101471;28;1084;-73
2020/12/25 02:12:43;;;;;;;;;;;;;;;21.50;28.49;97428.88;5101201;28;908;-73
2020/12/25 02:15:08;;;;;;;;;;;;;;;22.18;27.62;97429.28;5100762;28;1069;-74
2020/12/25 02:17:34;;;;;;;;;;;;;;;22.50;27.11;97439.38;5101605;28;622;-74
2020/12/25 02:20:02;;;;;;;;;;;;;;;22.57;27.04;97433.41;5101566;28;1973;-73
2020/12/25 02:22:28;;;;;;;;;;;;;;;22.66;27.05;97435.50;5101634;28;674;-74
2020/12/25 02:24:53;;;;;;;;;;;;;;;21.72;28.06;97432.53;5101193;28;973;-74
2020/12/25 02:27:19;;;;;;;;;;;;;;;21.76;28.23;97438.88;5083815;28;888;-74
2020/12/25 02:29:44;;;;;;;;;;;;;;;21.58;28.47;97428.16;5101065;28;946;-74
2020/12/25 02:32:10;;;;;;;;;;;;;;;21.64;28.75;97431.19;5101085;28;591;-73
2020/12/25 02:34:35;;;;;;;;;;;;;;;22.19;27.84;97423.13;5100984;28;629;-74
2020/12/25 02:37:00;;;;;;;;;;;;;;;22.47;27.34;97420.44;5101065;28;613;-73
2020/12/25 02:39:26;;;;;;;;;;;;;;;22.56;26.97;97420.50;5100813;28;1906;-74
2020/12/25 02:41:51;;;;;;;;;;;;;;;22.23;27.44;97415.28;5100679;28;990;-73
2020/12/25 02:44:17;;;;;;;;;;;;;;;21.81;27.91;97418.47;5100870;28;900;-73
2020/12/25 02:46:42;;;;;;;;;;;;;;;21.54;28.38;97421.03;5101064;28;640;-74
2020/12/25 02:49:08;;;;;;;;;;;;;;;21.77;28.32;97429.13;5100810;28;694;-73
2020/12/25 02:51:33;;;;;;;;;;;;;;;22.24;27.57;97422.53;5101363;28;633;-73
2020/12/25 02:53:58;;;;;;;;;;;;;;;22.44;27.27;97429.91;5100591;28;698;-73
2020/12/25 02:56:24;;;;;;;;;;;;;;;22.55;27.04;97431.03;5100236;28;990;-73
2020/12/25 02:58:49;;;;;;;;;;;;;;;21.77;27.87;97423.44;5100583;28;1964;-73
2020/12/25 03:01:15;;;;;;;;;;;;;;;21.79;27.85;97431.47;5100674;28;945;-73
2020/12/25 03:03:40;;;;;;;;;;;;;;;21.66;28.10;97433.56;5100467;28;674;-73
2020/12/25 03:06:09;;;;;;;;;;;;;;;21.54;28.59;97432.38;5100813;28;678;-73
2020/12/25 03:08:34;;;;;;;;;;;;;;;21.33;28.60;97433.91;5100683;28;693;-73
2020/12/25 03:11:00;;;;;;;;;;;;;;;21.44;28.72;97439.19;5100382;28;930;-73
2020/12/25 03:13:25;;;;;;;;;;;;;;;21.30;28.88;97435.63;5100096;28;886;-73
2020/12/25 03:15:51;;;;;;;;;;;;;;;21.08;29.14;97429.06;5100209;28;1029;-73
2020/12/25 03:18:16;;;;;;;;;;;;;;;22.02;27.91;97435.88;5100167;28;1906;-73
2020/12/25 03:20:42;;;;;;;;;;;;;;;22.28;27.55;97439.41;5100246;28;603;-74
2020/12/25 03:23:07;;;;;;;;;;;;;;;22.61;27.08;97439.72;5100427;28;726;-73
2020/12/25 03:25:33;;;;;;;;;;;;;;;22.39;26.84;97445.47;5099628;28;990;-74
2020/12/25 03:27:58;;;;;;;;;;;;;;;21.76;27.85;97433.19;5099395;28;865;-73
2020/12/25 03:30:23;;;;;;;;;;;;;;;21.33;28.63;97429.03;5100188;28;955;-72
2020/12/25 03:32:49;;;;;;;;;;;;;;;21.61;28.54;97426.47;5099975;28;681;-72
2020/12/25 03:35:15;;;;;;;;;;;;;;;21.53;28.73;97430.78;5100162;28;622;-73
2020/12/25 03:37:40;;;;;;;;;;;;;;;22.19;27.41;97431.63;5100283;28;639;-73
2020/12/25 03:40:05;;;;;;;;;;;;;;;22.47;27.08;97426.13;5099574;28;1980;-73
2020/12/25 03:42:31;;;;;;;;;;;;;;;22.70;26.79;97424.81;5099919;28;981;-73
2020/12/25 03:44:56;;;;;;;;;;;;;;;22.44;27.03;97422.19;5099791;28;765;-72
2020/12/25 03:47:25;;;;;;;;;;;;;;;21.67;28.04;97430.28;5062819;28;1170;-74
2020/12/25 03:49:50;;;;;;;;;;;;;;;21.38;28.60;97426.88;5059664;28;673;-73
2020/12/25 03:52:16;;;;;;;;;;;;;;;21.62;28.80;97427.25;5059580;28;619;-74
2020/12/25 03:54:41;;;;;;;;;;;;;;;22.47;27.12;97434.63;5059249;28;940;-74
2020/12/25 03:57:07;;;;;;;;;;;;;;;22.46;27.28;97438.72;5059456;28;857;-74
2020/12/25 03:59:32;;;;;;;;;;;;;;;22.66;26.91;97435.50;5059312;28;1980;-74
2020/12/25 04:01:57;;;;;;;;;;;;;;;22.19;27.15;97442.97;5059792;28;568;-73
2020/12/25 04:04:23;;;;;;;;;;;;;;;21.71;27.86;97439.44;5059910;28;666;-73
2020/12/25 04:06:48;;;;;;;;;;;;;;;21.41;28.39;97440.13;5059769;28;669;-74
2020/12/25 04:09:14;;;;;;;;;;;;;;;21.40;28.72;97427.19;5059073;28;971;-73
2020/12/25 04:11:39;;;;;;;;;;;;;;;21.40;28.68;97427.19;5059190;28;939;-73
2020/12/25 04:14:05;;;;;;;;;;;;;;;22.06;27.90;97428.84;5059298;28;940;-73
2020/12/25 04:16:30;;;;;;;;;;;;;;;22.38;27.30;97428.91;5059380;28;679;-73
2020/12/25 04:18:56;;;;;;;;;;;;;;;22.29;27.45;97436.09;5059432;28;1959;-74
2020/12/25 04:21:21;;;;;;;;;;;;;;;22.74;26.44;97437.59;5059306;28;742;-73
2020/12/25 04:23:47;;;;;;;;;;;;;;;21.84;27.78;97454.34;5058922;28;921;-74
2020/12/25 04:26:12;;;;;;;;;;;;;;;21.68;27.97;97440.34;5059160;28;887;-73
2020/12/25 04:28:38;;;;;;;;;;;;;;;21.45;28.39;97446.44;5059172;28;964;-73
2020/12/25 04:31:03;;;;;;;;;;;;;;;21.70;28.54;97440.69;5059264;28;705;-73
2020/12/25 04:33:28;;;;;;;;;;;;;;;22.18;27.41;97451.94;5059679;28;710;-73
2020/12/25 04:35:54;;;;;;;;;;;;;;;22.46;26.95;97453.69;5059312;28;619;-74
2020/12/25 04:38:19;;;;;;;;;;;;;;;22.71;26.93;97438.53;5060355;28;1905;-74
2020/12/25 04:40:45;;;;;;;;;;;;;;;22.25;27.23;97446.78;5062736;28;817;-73
2020/12/25 04:43:10;;;;;;;;;;;;;;;21.57;28.39;97443.56;5076597;28;1029;-73
2020/12/25 04:45:36;;;;;;;;;;;;;;;21.44;28.83;97436.38;5082734;28;663;-73
2020/12/25 04:48:01;;;;;;;;;;;;;;;21.32;28.75;97438.78;5082879;28;718;-74
2020/12/25 04:50:27;;;;;;;;;;;;;;;22.09;27.93;97430.75;5065405;28;603;-73
2020/12/25 04:52:52;;;;;;;;;;;;;;;22.16;27.66;97432.56;5082210;28;859;-74
2020/12/25 04:55:18;;;;;;;;;;;;;;;22.56;26.98;97431.84;5082714;28;861;-74
2020/12/25 04:57:44;;;;;;;;;;;;;;;22.56;26.73;97438.28;5082663;28;979;-73
2020/12/25 05:00:16;;;;;;;;;;;;;;;21.39;28.48;97442.59;5082632;28;1906;-73
2020/12/25 05:02:41;;;;;;;;;;;;;;;21.64;28.42;97431.19;5082428;28;815;-73
2020/12/25 05:05:07;;;;;;;;;;;;;;;21.62;28.43;97439.38;5082939;28;662;-72
2020/12/25 05:07:32;;;;;;;;;;;;;;;22.21;27.69;97440.47;5082036;28;967;-73
2020/12/25 05:09:58;;;;;;;;;;;;;;;22.65;27.06;97429.03;5082448;28;1014;-73
2020/12/25 05:12:25;;;;;;;;;;;;;;;22.55;26.92;97438.78;5082697;28;1024;-72
2020/12/25 05:14:50;;;;;;;;;;;;;;;22.09;27.33;97429.97;5082242;28;651;-73
2020/12/25 05:17:16;;;;;;;;;;;;;;;21.30;28.67;97424.31;5082196;28;650;-73
2020/12/25 05:19:41;;;;;;;;;;;;;;;21.51;28.38;97424.81;5065087;28;1902;-73
2020/12/25 05:22:07;;;;;;;;;;;;;;;21.56;28.53;97425.00;5082221;28;949;-71
2020/12/25 05:24:36;;;;;;;;;;;;;;;22.13;28.28;97427.81;5082112;28;897;-73
2020/12/25 05:27:02;;;;;;;;;;;;;;;22.52;27.29;97425.50;5081984;28;954;-74
2020/12/25 05:29:27;;;;;;;;;;;;;;;22.58;27.14;97424.44;5082062;28;738;-73
2020/12/25 05:31:53;;;;;;;;;;;;;;;22.56;26.98;97431.84;5082241;28;601;-73
2020/12/25 05:34:19;;;;;;;;;;;;;;;21.60;28.42;97424.88;5081594;28;966;-73
2020/12/25 05:36:48;;;;;;;;;;;;;;;21.70;27.74;97429.34;5081977;28;929;-73
2020/12/25 05:39:15;;;;;;;;;;;;;;;21.64;28.16;97436.06;5081741;28;1910;-73
2020/12/25 05:41:41;;;;;;;;;;;;;;;22.21;27.69;97446.13;5064215;28;1229;-72
2020/12/25 05:44:06;;;;;;;;;;;;;;;22.58;27.05;97441.44;5064317;28;695;-74
2020/12/25 05:46:31;;;;;;;;;;;;;;;22.85;26.32;97437.94;5082091;28;663;-73
2020/12/25 05:48:58;;;;;;;;;;;;;;;22.91;26.50;97440.22;5063424;28;1035;-73
2020/12/25 05:51:23;;;;;;;;;;;;;;;21.46;28.33;97425.41;5081147;28;825;-72
2020/12/25 05:53:49;;;;;;;;;;;;;;;21.44;28.28;97434.31;5081453;28;908;-73
2020/12/25 05:56:14;;;;;;;;;;;;;;;21.56;28.32;97435.56;5064283;28;650;-73
2020/12/25 05:58:42;;;;;;;;;;;;;;;21.62;28.42;97435.75;5081333;28;1906;-74
2020/12/25 06:01:07;;;;;;;;;;;;;;;21.98;28.12;97440.91;5081490;28;681;-73
2020/12/25 06:03:32;;;;;;;;;;;;;;;22.23;27.40;97440.81;5063626;28;936;-74
2020/12/25 06:05:58;;;;;;;;;;;;;;;22.62;26.87;97436.44;5063711;28;842;-73
2020/12/25 06:08:34;;;;;;;;;;;;;;;22.31;27.05;97444.94;5064217;28;849;-73
2020/12/25 06:11:00;;;;;;;;;;;;;;;21.55;28.22;97439.59;5063992;28;674;-72
2020/12/25 06:13:26;;;;;;;;;;;;;;;21.26;28.91;97446.25;5081123;28;634;-73
2020/12/25 06:15:51;;;;;;;;;;;;;;;21.66;28.75;97454.19;5064105;28;647;-72
2020/12/25 06:18:29;;;;;;;;;;;;;;;22.06;27.87;97456.38;5074159;28;2005;-71
2020/12/25 06:21:04;;;;;;;;;;;;;;;22.36;27.25;97458.50;5114607;28;908;-71
2020/12/25 06:23:57;;;;;;;;;;;;;;;22.57;26.76;97456.09;5101244;28;853;-71
2020/12/25 06:26:23;;;;;;;;;;;;;;;22.12;27.45;97460.22;5092858;28;797;-71
2020/12/25 06:28:49;;;;;;;;;;;;;;;21.37;28.14;97464.91;5082639;28;861;-71
2020/12/25 06:31:35;;;;;;;;;;;;;;;20.95;29.39;97465.84;5101156;28;1009;-71
2020/12/25 06:34:01;;;;;;;;;;;;;;;21.50;28.56;97462.84;5082696;28;1022;-72
2020/12/25 06:36:27;;;;;;;;;;;;;;;21.75;28.31;97464.78;5100446;28;880;-71
2020/12/25 06:38:52;;;;;;;;;;;;;;;22.14;27.70;97480.41;5100035;28;1977;-73
2020/12/25 06:41:18;;;;;;;;;;;;;;;22.38;27.42;97485.59;5100126;28;836;-71
2020/12/25 06:43:43;;;;;;;;;;;;;;;22.50;27.34;97488.34;5092053;28;1225;-73
2020/12/25 06:46:09;;;;;;;;;;;;;;;22.32;27.08;97486.19;5120220;28;940;-73
2020/12/25 06:48:34;;;;;;;;;;;;;;;21.69;28.17;97489.28;5120829;28;860;-73
2020/12/25 06:51:00;;;;;;;;;;;;;;;21.24;28.77;97488.34;5120034;28;832;-71
2020/12/25 06:53:41;;;;;;;;;;;;;;;21.17;29.03;97482.91;5119256;28;891;-72
2020/12/25 06:56:16;;;;;;;;;;;;;;;22.33;28.14;97490.63;5100473;28;723;-74
2020/12/25 06:58:42;;;;;;;;;;;;;;;22.62;27.61;97481.00;5100475;28;1902;-74
2020/12/25 07:01:08;;;;;;;;;;;;;;;22.53;27.70;97484.56;5100298;28;639;-73
2020/12/25 07:03:37;;;;;;;;;;;;;;;22.02;28.26;97478.38;5099998;28;982;-73
2020/12/25 07:06:03;;;;;;;;;;;;;;;21.38;28.99;97480.66;5100049;28;844;-72
2020/12/25 07:08:29;;;;;;;;;;;;;;;21.43;28.87;97478.03;5100349;28;841;-73
2020/12/25 07:11:00;;;;;;;;;;;;;;;21.10;29.50;97477.50;5100674;28;618;-74
2020/12/25 07:13:26;;;;;;;;;;;;;;;21.86;29.05;97482.19;5100342;28;650;-72
2020/12/25 07:15:52;;;;;;;;;;;;;;;22.14;28.45;97486.06;5100368;28;643;-73
2020/12/25 07:18:17;;;;;;;;;;;;;;;22.51;27.83;97480.63;5099686;28;1971;-73
2020/12/25 07:20:43;;;;;;;;;;;;;;;22.18;28.16;97481.06;5100156;28;947;-72
2020/12/25 07:23:08;;;;;;;;;;;;;;;21.72;29.11;97477.84;5120283;28;1006;-72
2020/12/25 07:25:40;;;;;;;;;;;;;;;21.59;29.32;97482.75;5120430;28;577;-72
2020/12/25 07:28:06;;;;;;;;;;;;;;;21.62;29.05;97466.91;5120273;28;648;-72
2020/12/25 07:30:31;;;;;;;;;;;;;;;21.54;29.16;97466.34;5120690;28;598;-73
2020/12/25 07:32:57;;;;;;;;;;;;;;;21.70;29.27;97473.88;5102645;28;893;-72
2020/12/25 07:35:22;;;;;;;;;;;;;;;22.10;28.34;97471.22;5120578;28;975;-71
2020/12/25 07:37:57;;;;;;;;;;;;;;;22.33;27.93;97470.00;5120166;28;884;-72
2020/12/25 07:40:22;;;;;;;;;;;;;;;22.31;27.92;97476.09;5120167;28;650;-71
2020/12/25 07:42:49;;;;;;;;;;;;;;;22.04;28.20;97470.22;5120101;28;1095;-74
2020/12/25 07:45:17;;;;;;;;;;;;;;;21.53;29.10;97481.75;5120210;28;627;-70
2020/12/25 07:47:43;;;;;;;;;;;;;;;21.58;29.07;97472.66;5119835;28;895;-70
2020/12/25 07:50:08;;;;;;;;;;;;;;;21.35;29.38;97475.88;5119884;28;823;-71
2020/12/25 07:52:34;;;;;;;;;;;;;;;21.31;29.25;97471.16;5119897;28;988;-70
2020/12/25 07:54:59;;;;;;;;;;;;;;;21.36;29.43;97480.31;5120349;28;617;-71
2020/12/25 07:57:25;;;;;;;;;;;;;;;21.85;28.83;97487.06;5120546;28;697;-69
2020/12/25 07:59:50;;;;;;;;;;;;;;;22.22;27.89;97481.72;5120139;28;1980;-72
2020/12/25 08:02:18;;;;;;;;;;;;;;;22.23;28.16;97477.63;5119533;28;836;-70
2020/12/25 08:04:47;;;;;;;;;;;;;;;22.59;27.43;97476.28;5120046;28;896;-73
2020/12/25 08:07:12;;;;;;;;;;;;;;;22.59;27.50;97479.13;5120372;28;844;-75
2020/12/25 08:09:38;;;;;;;;;;;;;;;21.81;28.36;97475.09;5120278;28;685;-71
2020/12/25 08:12:09;;;;;;;;;;;;;;;21.82;28.62;97473.84;5120132;28;685;-70
2020/12/25 08:14:36;;;;;;;;;;;;;;;21.75;28.45;97476.13;5123874;28;661;-71
2020/12/25 08:17:01;;;;;;;;;;;;;;;21.78;28.43;97475.22;5106471;28;1090;-70
2020/12/25 08:19:26;;;;;;;;;;;;;;;21.47;29.10;97461.72;5105970;28;1963;-70
2020/12/25 08:22:01;;;;;;;;;;;;;;;21.42;29.06;97465.13;5124099;28;907;-70
2020/12/25 08:24:26;;;;;;;;;;;;;;;21.77;29.04;97474.44;5106289;28;638;-70
2020/12/25 08:26:58;;;;;;;;;;;;;;;22.33;27.87;97482.13;5106162;28;1307;-70
2020/12/25 08:29:23;;;;;;;;;;;;;;;22.58;27.30;97469.00;5124120;28;694;-70
2020/12/25 08:31:49;;;;;;;;;;;;;;;21.74;28.65;97474.53;5123342;28;1035;-71
2020/12/25 08:34:14;;;;;;;;;;;;;;;21.37;29.30;97470.59;5123452;28;936;-72
2020/12/25 08:36:40;;;;;;;;;;;;;;;21.55;29.02;97465.09;5123954;28;876;-72
2020/12/25 08:39:06;;;;;;;;;;;;;;;21.71;28.52;97464.94;5123303;28;1976;-71
2020/12/25 08:41:31;;;;;;;;;;;;;;;21.17;29.31;97468.78;5123873;28;689;-71
2020/12/25 08:44:09;;;;;;;;;;;;;;;21.83;28.95;97461.25;5123590;28;730;-72
2020/12/25 08:46:35;;;;;;;;;;;;;;;22.20;27.89;97467.22;5123349;28;883;-73
2020/12/25 08:49:00;;;;;;;;;;;;;;;22.47;27.68;97468.63;5123356;28;883;-73
2020/12/25 08:51:31;;;;;;;;;;;;;;;22.48;27.51;97458.88;5123597;28;948;-71
2020/12/25 08:53:57;;;;;;;;;;;;;;;21.63;28.72;97454.31;5123168;28;674;-73
2020/12/25 08:56:23;;;;;;;;;;;;;;;21.19;29.38;97457.81;5123297;28;603;-72
2020/12/25 08:59:00;;;;;;;;;;;;;;;21.51;29.10;97447.47;5123358;28;1909;-73
2020/12/25 09:01:27;;;;;;;;;;;;;;;21.82;28.72;97445.50;5122650;28;868;-72
2020/12/25 09:03:53;;;;;;;;;;;;;;;22.27;28.02;97438.59;5122559;28;950;-72
2020/12/25 09:06:18;;;;;;;;;;;;;;;22.42;27.81;97438.06;5122992;28;657;-71
2020/12/25 09:08:44;;;;;;;;;;;;;;;22.26;27.83;97431.34;5123108;28;877;-71
2020/12/25 09:11:35;;;;;;;;;;;;;;;21.75;28.56;97434.44;5123347;28;665;-72
2020/12/25 09:14:01;;;;;;;;;;;;;;;21.46;28.84;97428.22;5119847;28;1357;-72
2020/12/25 09:16:26;;;;;;;;;;;;;;;21.44;29.05;97427.88;5122520;28;988;-71
2020/12/25 09:18:51;;;;;;;;;;;;;;;21.33;29.19;97425.41;5122465;28;1882;-72
2020/12/25 09:21:17;;;;;;;;;;;;;;;21.49;29.03;97408.25;5122882;28;881;-71
2020/12/25 09:23:42;;;;;;;;;;;;;;;21.53;29.03;97406.09;5122091;28;618;-71
2020/12/25 09:26:09;;;;;;;;;;;;;;;21.56;29.36;97412.91;5121735;28;630;-71
2020/12/25 09:28:34;;;;;;;;;;;;;;;22.21;28.09;97395.13;5104959;28;642;-72
2020/12/25 09:31:00;;;;;;;;;;;;;;;22.30;27.95;97398.00;5122315;28;987;-71
2020/12/25 09:33:25;;;;;;;;;;;;;;;22.28;27.75;97397.69;5122048;28;932;-71
2020/12/25 09:35:51;;;;;;;;;;;;;;;21.94;28.37;97406.25;5122483;28;1016;-71
2020/12/25 09:38:17;;;;;;;;;;;;;;;21.75;28.56;97403.28;5122425;28;1980;-71
2020/12/25 09:40:42;;;;;;;;;;;;;;;21.44;28.85;97406.03;5122347;28;598;-71
2020/12/25 09:43:07;;;;;;;;;;;;;;;21.47;28.84;97405.13;5122067;28;1006;-71
2020/12/25 09:45:33;;;;;;;;;;;;;;;21.55;29.16;97405.63;5122102;28;880;-73
2020/12/25 09:47:58;;;;;;;;;;;;;;;21.50;28.85;97397.72;5121942;28;876;-71
2020/12/25 09:50:24;;;;;;;;;;;;;;;21.50;29.48;97389.25;5122029;28;935;-75
2020/12/25 09:52:49;;;;;;;;;;;;;;;21.99;28.52;97383.00;5122134;28;645;-71
2020/12/25 09:55:15;;;;;;;;;;;;;;;22.22;28.10;97391.03;5122025;28;693;-73
2020/12/25 09:57:43;;;;;;;;;;;;;;;22.34;27.73;97387.31;5122319;28;679;-73
2020/12/25 10:00:09;;;;;;;;;;;;;;;22.43;27.30;97382.94;5121582;28;1909;-72
2020/12/25 10:02:35;;;;;;;;;;;;;;;21.63;28.83;97389.19;5121578;28;882;-73
2020/12/25 10:05:00;;;;;;;;;;;;;;;21.13;29.47;97385.25;5121852;28;1069;-71
2020/12/25 10:07:25;;;;;;;;;;;;;;;21.54;29.23;97381.41;5122135;28;416;-73
2020/12/25 10:09:51;;;;;;;;;;;;;;;22.20;27.98;97373.72;5121918;28;682;-73
2020/12/25 10:12:16;;;;;;;;;;;;;;;22.42;27.84;97375.69;5121828;28;622;-72
2020/12/25 10:14:42;;;;;;;;;;;;;;;22.58;27.39;97372.59;5121577;28;1058;-73
2020/12/25 10:17:07;;;;;;;;;;;;;;;22.55;27.48;97367.88;5121447;28;829;-73
2020/12/25 10:19:34;;;;;;;;;;;;;;;22.28;27.63;97360.84;5121533;28;1903;-72
2020/12/25 10:21:59;;;;;;;;;;;;;;;21.71;28.57;97363.00;5121631;28;619;-73
2020/12/25 10:24:28;;;;;;;;;;;;;;;21.78;28.27;97356.28;5087071;28;1356;-73
2020/12/25 10:26:53;;;;;;;;;;;;;;;21.40;28.85;97356.44;5121615;28;693;-73
2020/12/25 10:29:19;;;;;;;;;;;;;;;21.69;29.36;97351.34;5121413;28;916;-73
2020/12/25 10:31:50;;;;;;;;;;;;;;;22.22;28.15;97344.91;5121140;28;903;-73
2020/12/25 10:34:16;;;;;;;;;;;;;;;22.17;28.13;97345.50;5121731;28;930;-72
2020/12/25 10:36:42;;;;;;;;;;;;;;;22.44;27.60;97344.84;5121221;28;618;-71
2020/12/25 10:39:08;;;;;;;;;;;;;;;21.95;28.07;97342.69;5121379;28;1969;-71
2020/12/25 10:41:34;;;;;;;;;;;;;;;21.55;29.07;97343.34;5121127;28;1079;-72
2020/12/25 10:43:59;;;;;;;;;;;;;;;21.56;28.85;97344.97;5120334;28;876;-73
2020/12/25 10:46:26;;;;;;;;;;;;;;;21.60;29.37;97325.78;5121385;28;875;-73
2020/12/25 10:48:51;;;;;;;;;;;;;;;22.07;28.33;97333.28;5121364;28;1058;-74
2020/12/25 10:51:16;;;;;;;;;;;;;;;22.42;27.84;97330.34;5121469;28;648;-72
2020/12/25 10:53:42;;;;;;;;;;;;;;;22.54;27.52;97335.13;5120806;28;949;-73
2020/12/25 10:56:08;;;;;;;;;;;;;;;22.43;27.58;97337.59;5121279;28;682;-74
2020/12/25 10:58:33;;;;;;;;;;;;;;;21.98;27.98;97334.06;5102914;28;1909;-74
2020/12/25 11:00:59;;;;;;;;;;;;;;;21.41;28.75;97326.91;5120576;28;937;-72
2020/12/25 11:03:24;;;;;;;;;;;;;;;21.30;29.12;97328.09;5120925;28;915;-74
2020/12/25 11:05:50;;;;;;;;;;;;;;;21.55;28.58;97324.34;5121213;28;611;-71
2020/12/25 11:08:15;;;;;;;;;;;;;;;21.81;28.98;97335.50;5120667;28;618;-74
2020/12/25 11:10:44;;;;;;;;;;;;;;;22.22;28.01;97340.00;5120683;28;682;-71
2020/12/25 11:13:09;;;;;;;;;;;;;;;22.44;27.54;97325.00;5120396;28;975;-73
2020/12/25 11:15:41;;;;;;;;;;;;;;;22.48;27.31;97319.97;5120389;28;879;-74
2020/12/25 11:18:07;;;;;;;;;;;;;;;21.98;28.01;97313.44;5120349;28;1906;-73
2020/12/25 11:20:32;;;;;;;;;;;;;;;21.51;28.98;97315.19;5120810;28;674;-73
2020/12/25 11:22:57;;;;;;;;;;;;;;;21.25;29.44;97314.50;5120261;28;855;-72
2020/12/25 11:25:23;;;;;;;;;;;;;;;22.09;28.41;97310.97;5120158;28;831;-71
2020/12/25 11:27:48;;;;;;;;;;;;;;;22.21;28.11;97310.09;5120100;28;841;-73
2020/12/25 11:30:14;;;;;;;;;;;;;;;22.34;27.92;97313.63;5120498;28;963;-74
2020/12/25 11:32:39;;;;;;;;;;;;;;;22.30;27.74;97318.66;5120466;28;922;-73
2020/12/25 11:35:05;;;;;;;;;;;;;;;21.75;28.61;97312.66;5120689;28;587;-74
2020/12/25 11:37:30;;;;;;;;;;;;;;;21.42;28.41;97323.63;5120734;28;687;-71
2020/12/25 11:39:56;;;;;;;;;;;;;;;21.67;28.48;97319.88;5120490;28;1905;-73
2020/12/25 11:42:21;;;;;;;;;;;;;;;21.49;28.67;97317.69;5119951;28;956;-73
2020/12/25 11:44:47;;;;;;;;;;;;;;;21.93;28.52;97320.50;5120329;28;878;-73
2020/12/25 11:47:12;;;;;;;;;;;;;;;22.28;28.07;97314.72;5121377;28;973;-72
2020/12/25 11:49:38;;;;;;;;;;;;;;;22.60;27.22;97313.41;5126955;28;674;-74
2020/12/25 11:52:03;;;;;;;;;;;;;;;22.90;26.86;97302.44;5127423;28;674;-71
2020/12/25 11:54:28;;;;;;;;;;;;;;;21.92;28.41;97309.63;5126938;28;689;-73
2020/12/25 11:56:54;;;;;;;;;;;;;;;21.77;28.51;97310.19;5127078;28;979;-73
2020/12/25 11:59:19;;;;;;;;;;;;;;;21.08;29.31;97315.91;5126801;28;1913;-73
2020/12/25 12:01:45;;;;;;;;;;;;;;;21.97;28.32;97309.03;5126890;28;974;-73
2020/12/25 12:04:13;;;;;;;;;;;;;;;22.48;27.62;97308.63;5127319;28;665;-74
2020/12/25 12:06:39;;;;;;;;;;;;;;;22.57;27.17;97314.31;5127056;28;598;-74
2020/12/25 12:09:04;;;;;;;;;;;;;;;22.16;27.57;97307.88;5127234;28;673;-74
2020/12/25 12:11:30;;;;;;;;;;;;;;;21.27;28.97;97306.34;5126841;28;638;-72
2020/12/25 12:13:55;;;;;;;;;;;;;;;21.57;28.82;97307.69;5126431;28;820;-74
2020/12/25 12:16:21;;;;;;;;;;;;;;;21.65;28.31;97296.88;5126451;28;815;-73
2020/12/25 12:18:47;;;;;;;;;;;;;;;21.83;28.75;97302.66;5126657;28;1980;-73
2020/12/25 12:21:13;;;;;;;;;;;;;;;22.16;28.32;97313.53;5126934;28;636;-73
2020/12/25 12:23:38;;;;;;;;;;;;;;;22.71;27.30;97293.09;5126516;28;690;-73
2020/12/25 12:26:10;;;;;;;;;;;;;;;22.44;27.46;97299.50;5126984;28;614;-71
2020/12/25 12:28:36;;;;;;;;;;;;;;;21.76;28.21;97302.94;5109115;28;835;-73
2020/12/25 12:31:02;;;;;;;;;;;;;;;21.18;29.17;97305.47;5126811;28;907;-72
2020/12/25 12:33:27;;;;;;;;;;;;;;;21.39;29.16;97295.44;5126723;28;801;-71
2020/12/25 12:35:52;;;;;;;;;;;;;;;21.98;28.47;97296.44;5126919;28;606;-72
2020/12/25 12:38:18;;;;;;;;;;;;;;;22.53;27.49;97300.28;5126877;28;1906;-72
2020/12/25 12:40:44;;;;;;;;;;;;;;;22.71;26.98;97296.72;5126522;28;659;-73
2020/12/25 12:43:10;;;;;;;;;;;;;;;22.73;26.94;97308.38;5125987;28;1138;-74
2020/12/25 12:45:35;;;;;;;;;;;;;;;22.03;27.78;97305.13;5126420;28;887;-74
2020/12/25 12:48:00;;;;;;;;;;;;;;;21.58;28.41;97303.59;5126740;28;792;-74
2020/12/25 12:50:26;;;;;;;;;;;;;;;21.67;28.52;97294.38;5126517;28;618;-73
2020/12/25 12:52:51;;;;;;;;;;;;;;;21.61;28.44;97296.25;5126724;28;575;-74
2020/12/25 12:55:17;;;;;;;;;;;;;;;21.82;28.85;97292.59;5126482;28;690;-71
2020/12/25 12:57:42;;;;;;;;;;;;;;;22.21;28.15;97297.97;5126641;28;642;-72
2020/12/25 13:00:08;;;;;;;;;;;;;;;22.68;27.49;97302.53;5123421;28;1914;-71